createdAt,value
2023-03-24T00:02:05.608Z,12.10
2023-03-24T00:04:33.217Z,12.10
2023-03-24T00:07:00.741Z,12.10
2023-03-24T00:09:28.240Z,12.10
2023-03-24T00:11:55.884Z,12.10
2023-03-24T00:14:23.407Z,12.10
2023-03-24T00:16:50.945Z,12.10
2023-03-24T00:19:18.538Z,12.10
2023-03-24T00:21:46.058Z,12.10
2023-03-24T00:24:13.580Z,12.30
2023-03-24T00:26:41.170Z,12.30
2023-03-24T00:29:08.701Z,12.30
2023-03-24T00:31:36.295Z,12.20
2023-03-24T00:34:04.593Z,12.20
2023-03-24T00:36:32.118Z,12.20
2023-03-24T00:38:59.643Z,12.20
2023-03-24T00:41:27.404Z,12.20
2023-03-24T00:43:54.742Z,12.20
2023-03-24T00:46:28.946Z,12.10
2023-03-24T00:49:03.008Z,12.10
2023-03-24T00:51:30.340Z,12.10
2023-03-24T00:53:58.635Z,12.10
2023-03-24T00:56:26.274Z,12.10
2023-03-24T00:58:53.744Z,12.10
2023-03-24T01:01:21.309Z,12.10
2023-03-24T01:03:48.840Z,12.10
2023-03-24T01:06:17.135Z,12.10
2023-03-24T01:08:44.673Z,12.10
2023-03-24T01:11:13.926Z,12.10
2023-03-24T01:13:41.387Z,12.10
2023-03-24T01:16:08.996Z,12.10
2023-03-24T01:18:37.312Z,12.30
2023-03-24T01:21:04.866Z,12.30
2023-03-24T01:23:32.409Z,12.30
2023-03-24T01:26:00.279Z,12.30
2023-03-24T01:28:27.812Z,12.30
2023-03-24T01:30:56.111Z,12.20
2023-03-24T01:33:23.885Z,12.20
2023-03-24T01:35:51.473Z,12.20
2023-03-24T01:38:19.709Z,12.20
2023-03-24T01:40:48.089Z,12.20
2023-03-24T01:43:21.704Z,12.20
2023-03-24T01:45:52.183Z,12.20
2023-03-24T01:48:19.763Z,12.20
2023-03-24T01:50:47.333Z,12.20
2023-03-24T01:53:15.623Z,12.20
2023-03-24T01:55:43.197Z,12.20
2023-03-24T01:58:10.738Z,12.20
2023-03-24T02:00:38.262Z,12.20
2023-03-24T02:03:07.038Z,12.20
2023-03-24T02:05:35.248Z,12.20
2023-03-24T02:08:20.833Z,12.20
2023-03-24T02:10:48.369Z,12.20
2023-03-24T02:13:17.077Z,12.30
2023-03-24T02:16:21.610Z,12.30
2023-03-24T02:19:00.930Z,12.30
2023-03-24T02:21:37.526Z,12.40
2023-03-24T02:24:23.406Z,12.40
2023-03-24T02:27:05.690Z,12.40
2023-03-24T02:29:45.876Z,12.40
2023-03-24T02:32:13.424Z,12.40
2023-03-24T02:34:46.464Z,12.40
2023-03-24T02:37:13.990Z,12.40
2023-03-24T02:40:05.301Z,12.50
2023-03-24T02:42:32.821Z,12.50
2023-03-24T02:45:06.770Z,12.50
2023-03-24T02:47:36.915Z,12.50
2023-03-24T02:50:19.257Z,12.50
2023-03-24T02:52:47.568Z,12.50
2023-03-24T02:55:29.866Z,12.50
2023-03-24T02:58:03.033Z,12.50
2023-03-24T03:00:36.534Z,12.50
2023-03-24T03:03:07.807Z,12.50
2023-03-24T03:05:35.339Z,12.50
2023-03-24T03:08:02.869Z,12.50
2023-03-24T03:10:30.408Z,12.60
2023-03-24T03:12:57.953Z,12.60
2023-03-24T03:15:25.487Z,12.60
2023-03-24T03:17:53.248Z,12.60
2023-03-24T03:20:23.570Z,12.60
2023-03-24T03:22:53.834Z,12.70
2023-03-24T03:25:21.746Z,12.70
2023-03-24T03:27:49.199Z,12.70
2023-03-24T03:30:20.395Z,12.70
2023-03-24T03:32:53.662Z,12.70
2023-03-24T03:35:27.704Z,12.80
2023-03-24T03:38:07.206Z,12.80
2023-03-24T03:40:43.509Z,13.00
2023-03-24T03:43:11.052Z,13.30
2023-03-24T03:45:38.603Z,13.20
2023-03-24T03:48:06.206Z,13.20
2023-03-24T03:50:33.701Z,13.10
2023-03-24T03:53:01.247Z,13.10
2023-03-24T03:55:28.762Z,13.10
2023-03-24T03:57:56.295Z,13.10
2023-03-24T04:00:26.078Z,13.10
2023-03-24T04:03:09.973Z,13.10
2023-03-24T04:05:50.153Z,13.10
2023-03-24T04:08:20.856Z,13.10
2023-03-24T04:11:25.340Z,13.10
2023-03-24T04:13:56.093Z,13.10
2023-03-24T04:16:46.027Z,13.10
2023-03-24T04:19:15.672Z,13.10
2023-03-24T04:22:07.257Z,13.10
2023-03-24T04:24:43.486Z,13.10
2023-03-24T04:27:24.372Z,13.10
2023-03-24T04:30:14.248Z,13.10
2023-03-24T04:32:46.525Z,13.10
2023-03-24T04:35:32.077Z,13.10
2023-03-24T04:38:05.438Z,13.30
2023-03-24T04:40:32.953Z,13.30
2023-03-24T04:43:00.484Z,13.30
2023-03-24T04:45:28.137Z,13.30
2023-03-24T04:47:55.764Z,13.20
2023-03-24T04:50:29.274Z,13.20
2023-03-24T04:52:56.818Z,13.10
2023-03-24T04:55:26.897Z,13.10
2023-03-24T04:57:54.444Z,13.10
2023-03-24T05:00:22.007Z,13.40
2023-03-24T05:02:49.575Z,13.40
2023-03-24T05:05:17.064Z,13.30
2023-03-24T05:07:44.617Z,13.30
2023-03-24T05:10:12.224Z,13.30
2023-03-24T05:12:40.542Z,13.50
2023-03-24T05:15:08.096Z,13.50
2023-03-24T05:17:35.680Z,13.50
2023-03-24T05:20:03.222Z,13.40
2023-03-24T05:22:30.741Z,13.30
2023-03-24T05:24:58.298Z,13.50
2023-03-24T05:27:25.821Z,13.50
2023-03-24T05:29:54.123Z,13.40
2023-03-24T05:32:22.468Z,13.40
2023-03-24T05:34:49.996Z,13.30
2023-03-24T05:37:17.529Z,13.30
2023-03-24T05:39:45.096Z,13.30
2023-03-24T05:42:12.636Z,13.20
2023-03-24T05:44:40.164Z,13.20
2023-03-24T05:47:08.182Z,13.20
2023-03-24T05:49:35.814Z,13.20
2023-03-24T05:52:04.117Z,13.20
2023-03-24T05:54:31.691Z,13.20
2023-03-24T05:56:59.256Z,13.20
2023-03-24T05:59:26.743Z,13.10
2023-03-24T06:01:54.347Z,13.20
2023-03-24T06:04:21.930Z,13.10
2023-03-24T06:06:50.198Z,13.10
2023-03-24T06:09:17.766Z,13.10
2023-03-24T06:11:45.295Z,13.10
2023-03-24T06:14:12.829Z,13.20
2023-03-24T06:16:41.187Z,13.20
2023-03-24T06:19:08.722Z,13.20
2023-03-24T06:21:36.243Z,13.20
2023-03-24T06:24:03.811Z,13.20
2023-03-24T06:26:31.348Z,13.20
2023-03-24T06:28:59.635Z,13.30
2023-03-24T06:31:27.257Z,13.30
2023-03-24T06:33:54.726Z,13.30
2023-03-24T06:36:22.253Z,13.30
2023-03-24T06:38:50.996Z,13.30
2023-03-24T06:41:17.338Z,13.30
2023-03-24T06:43:44.877Z,13.30
2023-03-24T06:46:12.452Z,13.30
2023-03-24T06:48:40.727Z,13.30
2023-03-24T06:51:09.036Z,13.30
2023-03-24T06:53:36.608Z,13.30
2023-03-24T06:56:04.146Z,13.30
2023-03-24T06:58:33.858Z,13.30
2023-03-24T07:00:59.263Z,13.50
2023-03-24T07:03:26.887Z,13.50
2023-03-24T07:05:55.097Z,13.50
2023-03-24T07:10:50.212Z,13.40
2023-03-24T07:13:17.745Z,13.30
2023-03-24T07:15:46.103Z,13.20
2023-03-24T07:18:13.727Z,13.20
2023-03-24T07:20:41.161Z,13.00
2023-03-24T07:23:08.729Z,12.80
2023-03-24T07:25:36.254Z,12.60
2023-03-24T07:28:04.568Z,12.20
2023-03-24T07:30:39.794Z,12.20
2023-03-24T07:32:59.707Z,12.10
2023-03-24T07:35:27.187Z,12.00
2023-03-24T07:37:54.768Z,11.90
2023-03-24T07:40:23.056Z,11.90
2023-03-24T07:42:53.448Z,11.90
2023-03-24T07:45:20.900Z,11.90
2023-03-24T07:47:48.464Z,11.90
2023-03-24T07:50:15.950Z,12.10
2023-03-24T07:52:43.623Z,12.30
2023-03-24T07:55:11.090Z,12.20
2023-03-24T07:57:41.041Z,12.20
2023-03-24T08:00:17.296Z,12.10
2023-03-24T08:02:44.931Z,12.10
2023-03-24T08:05:12.373Z,12.30
2023-03-24T08:07:41.467Z,12.30
2023-03-24T08:10:07.727Z,12.20
2023-03-24T08:12:35.256Z,12.20
2023-03-24T08:15:03.409Z,12.10
2023-03-24T08:17:30.881Z,12.10
2023-03-24T08:20:00.981Z,12.10
2023-03-24T08:22:27.164Z,12.10
2023-03-24T08:24:54.693Z,12.00
2023-03-24T08:27:23.003Z,12.30
2023-03-24T08:29:51.159Z,12.20
2023-03-24T08:32:18.675Z,12.20
2023-03-24T08:34:46.971Z,12.10
2023-03-24T08:37:14.536Z,12.10
2023-03-24T08:39:42.061Z,12.10
2023-03-24T08:42:09.605Z,12.00
2023-03-24T08:44:40.509Z,12.00
2023-03-24T08:47:07.938Z,12.00
2023-03-24T08:49:36.241Z,12.30
2023-03-24T08:52:03.835Z,12.30
2023-03-24T08:54:31.366Z,12.30
2023-03-24T08:56:58.927Z,12.30
2023-03-24T08:59:26.488Z,12.60
2023-03-24T09:01:54.043Z,12.70
2023-03-24T09:04:21.592Z,12.70
2023-03-24T09:06:49.122Z,12.70
2023-03-24T09:09:17.450Z,12.70
2023-03-24T09:11:44.964Z,12.70
2023-03-24T09:14:12.574Z,12.70
2023-03-24T09:16:40.148Z,12.70
2023-03-24T09:19:07.634Z,12.70
2023-03-24T09:21:36.019Z,12.80
2023-03-24T09:24:03.548Z,12.80
2023-03-24T09:26:31.092Z,12.90
2023-03-24T09:28:58.680Z,12.80
2023-03-24T09:31:26.997Z,13.10
2023-03-24T09:33:54.540Z,13.10
2023-03-24T09:36:22.129Z,13.10
2023-03-24T09:38:49.654Z,13.10
2023-03-24T09:41:19.733Z,13.20
2023-03-24T09:43:53.167Z,13.20
2023-03-24T09:46:32.766Z,13.20
2023-03-24T09:49:00.273Z,13.20
2023-03-24T09:51:30.206Z,13.20
2023-03-24T09:54:09.717Z,13.30
2023-03-24T09:56:37.523Z,13.30
2023-03-24T09:59:04.977Z,13.40
2023-03-24T10:01:32.591Z,13.50
2023-03-24T10:04:00.198Z,13.50
2023-03-24T10:06:27.598Z,13.40
2023-03-24T10:08:58.691Z,13.70
2023-03-24T10:11:26.236Z,13.70
2023-03-24T10:14:11.595Z,13.60
2023-03-24T10:16:48.129Z,13.60
2023-03-24T10:19:37.243Z,13.70
2023-03-24T10:22:23.043Z,13.70
2023-03-24T10:25:05.585Z,13.70
2023-03-24T10:28:06.602Z,13.70
2023-03-24T10:30:34.182Z,13.80
2023-03-24T10:33:01.748Z,13.90
2023-03-24T10:35:29.267Z,14.00
2023-03-24T10:37:56.833Z,14.00
2023-03-24T10:40:24.368Z,14.10
2023-03-24T10:43:07.183Z,14.20
2023-03-24T10:45:24.905Z,14.20
2023-03-24T10:47:53.394Z,14.20
2023-03-24T10:50:20.923Z,14.20
2023-03-24T10:52:48.445Z,14.20
2023-03-24T10:55:15.979Z,14.10
2023-03-24T10:57:43.505Z,14.10
2023-03-24T11:00:11.258Z,14.10
2023-03-24T11:02:38.928Z,14.10
2023-03-24T11:05:18.614Z,14.10
2023-03-24T11:07:46.176Z,14.40
2023-03-24T11:10:14.427Z,14.50
2023-03-24T11:12:42.010Z,14.50
2023-03-24T11:15:21.462Z,14.50
2023-03-24T11:17:43.081Z,14.60
2023-03-24T11:20:19.738Z,14.70
2023-03-24T11:22:52.734Z,14.70
2023-03-24T11:25:20.281Z,14.80
2023-03-24T11:27:47.867Z,14.80
2023-03-24T11:30:15.454Z,14.80
2023-03-24T11:32:43.016Z,14.80
2023-03-24T11:35:10.647Z,14.70
2023-03-24T11:37:38.170Z,14.80
2023-03-24T11:40:24.382Z,14.80
2023-03-24T11:43:01.044Z,14.80
2023-03-24T11:45:31.053Z,14.80
2023-03-24T11:47:58.748Z,14.70
2023-03-24T11:50:28.798Z,14.80
2023-03-24T11:53:11.692Z,14.90
2023-03-24T11:55:45.086Z,14.90
2023-03-24T11:58:18.651Z,15.00
2023-03-24T12:01:00.996Z,15.00
2023-03-24T12:03:56.206Z,15.10
2023-03-24T12:06:45.755Z,15.20
2023-03-24T12:09:31.798Z,15.20
2023-03-24T12:12:30.763Z,15.20
2023-03-24T12:15:26.633Z,15.20
2023-03-24T12:17:42.670Z,15.30
2023-03-24T12:20:19.662Z,15.50
2023-03-24T12:23:08.209Z,15.50
2023-03-24T12:25:38.440Z,15.80
2023-03-24T12:28:11.551Z,16.00
2023-03-24T12:30:48.156Z,16.10
2023-03-24T12:33:34.639Z,16.60
2023-03-24T12:36:23.882Z,16.60
2023-03-24T12:39:12.518Z,16.50
2023-03-24T12:42:01.274Z,16.50
2023-03-24T12:44:46.926Z,16.50
2023-03-24T12:47:29.454Z,16.50
2023-03-24T12:50:09.033Z,16.60
2023-03-24T12:52:51.123Z,16.50
2023-03-24T12:55:20.190Z,16.50
2023-03-24T12:57:47.720Z,16.50
2023-03-24T13:00:21.336Z,16.40
2023-03-24T13:02:51.647Z,16.40
2023-03-24T13:05:19.024Z,16.40
2023-03-24T13:07:46.605Z,16.40
2023-03-24T13:10:26.160Z,16.50
2023-03-24T13:13:14.544Z,16.50
2023-03-24T13:15:47.933Z,16.40
2023-03-24T13:18:23.780Z,16.40
2023-03-24T13:20:55.116Z,16.40
2023-03-24T13:23:58.067Z,16.40
2023-03-24T13:26:43.762Z,16.40
2023-03-24T13:29:49.433Z,16.30
2023-03-24T13:32:12.160Z,16.20
2023-03-24T13:34:39.675Z,16.30
2023-03-24T13:37:22.310Z,16.40
2023-03-24T13:39:49.808Z,16.60
2023-03-24T13:42:38.419Z,16.50
2023-03-24T13:45:06.082Z,16.70
2023-03-24T13:48:03.750Z,16.90
2023-03-24T13:50:31.248Z,16.90
2023-03-24T13:52:58.784Z,16.70
2023-03-24T13:55:29.278Z,16.60
2023-03-24T13:58:02.243Z,16.50
2023-03-24T14:00:30.550Z,16.40
2023-03-24T14:03:06.746Z,16.40
2023-03-24T14:05:42.499Z,16.30
2023-03-24T14:08:10.135Z,16.10
2023-03-24T14:10:40.252Z,16.10
2023-03-24T14:13:13.678Z,16.30
2023-03-24T14:15:41.279Z,16.30
2023-03-24T14:18:23.916Z,16.30
2023-03-24T14:20:58.326Z,16.40
2023-03-24T14:23:43.891Z,16.40
2023-03-24T14:26:20.939Z,16.20
2023-03-24T14:28:48.469Z,16.20
2023-03-24T14:31:16.150Z,16.10
2023-03-24T14:33:43.564Z,16.30
2023-03-24T14:36:11.082Z,16.30
2023-03-24T14:38:39.402Z,16.30
2023-03-24T14:41:09.821Z,16.30
2023-03-24T14:43:40.127Z,16.40
2023-03-24T14:46:22.748Z,16.40
2023-03-24T14:49:25.034Z,16.40
2023-03-24T14:52:01.278Z,16.40
2023-03-24T14:54:34.759Z,16.40
2023-03-24T14:57:02.284Z,16.30
2023-03-24T14:59:35.534Z,16.30
2023-03-24T15:02:27.233Z,16.50
2023-03-24T15:05:23.095Z,16.50
2023-03-24T15:08:01.885Z,16.50
2023-03-24T15:10:45.574Z,16.40
2023-03-24T15:13:37.331Z,16.40
2023-03-24T15:16:04.893Z,16.30
2023-03-24T15:18:32.411Z,16.20
2023-03-24T15:20:59.960Z,16.10
2023-03-24T15:23:27.502Z,16.20
2023-03-24T15:25:56.259Z,16.40
2023-03-24T15:28:25.313Z,16.40
2023-03-24T15:30:52.894Z,16.30
2023-03-24T15:33:20.412Z,16.20
2023-03-24T15:35:48.042Z,16.20
2023-03-24T15:38:18.245Z,16.30
2023-03-24T15:40:45.823Z,16.30
2023-03-24T15:43:18.974Z,16.40
2023-03-24T15:45:55.311Z,16.40
2023-03-24T15:48:19.943Z,16.60
2023-03-24T15:51:06.052Z,16.60
2023-03-24T15:53:45.544Z,16.50
2023-03-24T15:56:13.091Z,16.50
2023-03-24T15:58:52.822Z,16.60
2023-03-24T16:01:26.176Z,16.60
2023-03-24T16:03:53.691Z,16.70
2023-03-24T16:06:27.616Z,16.70
2023-03-24T16:08:55.209Z,16.70
2023-03-24T16:11:22.732Z,16.70
2023-03-24T16:13:50.268Z,16.70
2023-03-24T16:16:26.883Z,16.80
2023-03-24T16:18:54.388Z,16.90
2023-03-24T16:21:21.983Z,16.80
2023-03-24T16:23:49.478Z,16.80
2023-03-24T16:26:17.783Z,16.80
2023-03-24T16:28:45.337Z,16.80
2023-03-24T16:31:22.580Z,16.70
2023-03-24T16:33:50.069Z,16.70
2023-03-24T16:36:18.363Z,16.60
2023-03-24T16:38:45.937Z,16.60
2023-03-24T16:41:13.474Z,16.50
2023-03-24T16:43:41.777Z,16.20
2023-03-24T16:46:18.171Z,16.20
2023-03-24T16:48:46.522Z,15.90
2023-03-24T16:51:14.039Z,15.90
2023-03-24T16:53:42.391Z,15.60
2023-03-24T16:56:09.914Z,15.60
2023-03-24T16:58:37.440Z,15.50
2023-03-24T17:01:14.741Z,15.20
2023-03-24T17:03:42.369Z,15.20
2023-03-24T17:06:09.759Z,15.10
2023-03-24T17:08:37.326Z,15.00
2023-03-24T17:11:04.845Z,14.90
2023-03-24T17:13:32.393Z,14.80
2023-03-24T17:16:00.017Z,14.70
2023-03-24T17:18:27.473Z,14.90
2023-03-24T17:20:54.995Z,14.80
2023-03-24T17:23:23.369Z,14.60
2023-03-24T17:25:51.667Z,14.40
2023-03-24T17:28:19.199Z,14.40
2023-03-24T17:30:47.696Z,14.30
2023-03-24T17:33:15.058Z,14.20
2023-03-24T17:35:48.986Z,14.10
2023-03-24T17:38:17.477Z,14.00
2023-03-24T17:40:44.996Z,14.00
2023-03-24T17:43:13.287Z,13.90
2023-03-24T17:45:40.889Z,13.90
2023-03-24T17:48:08.435Z,13.90
2023-03-24T17:50:36.860Z,13.80
2023-03-24T17:53:04.415Z,13.80
2023-03-24T17:55:32.715Z,13.90
2023-03-24T17:58:00.254Z,13.90
2023-03-24T18:00:28.767Z,13.70
2023-03-24T18:02:56.206Z,13.70
2023-03-24T18:05:23.701Z,13.70
2023-03-24T18:07:51.274Z,13.60
2023-03-24T18:10:18.801Z,13.50
2023-03-24T18:12:46.340Z,13.40
2023-03-24T18:15:14.662Z,13.30
2023-03-24T18:17:42.210Z,13.20
2023-03-24T18:20:09.850Z,13.20
2023-03-24T18:22:37.813Z,13.40
2023-03-24T18:25:05.017Z,13.30
2023-03-24T18:27:32.566Z,13.20
2023-03-24T18:30:00.212Z,13.10
2023-03-24T18:32:27.663Z,13.20
2023-03-24T18:34:55.185Z,13.10
2023-03-24T18:37:23.793Z,12.90
2023-03-24T18:39:51.337Z,12.90
2023-03-24T18:42:18.859Z,12.80
2023-03-24T18:44:46.421Z,12.80
2023-03-24T18:47:13.965Z,12.70
2023-03-24T18:49:41.624Z,12.90
2023-03-24T18:52:09.942Z,12.80
2023-03-24T18:54:37.455Z,12.80
2023-03-24T18:57:05.026Z,12.70
2023-03-24T18:59:32.549Z,12.50
2023-03-24T19:02:00.083Z,12.30
2023-03-24T19:04:27.612Z,12.20
2023-03-24T19:06:55.193Z,12.00
2023-03-24T19:09:23.522Z,11.50
2023-03-24T19:11:51.033Z,11.50
2023-03-24T19:14:19.365Z,10.90
2023-03-24T19:16:46.909Z,10.90
2023-03-24T19:19:14.427Z,10.70
2023-03-24T19:21:42.760Z,10.20
2023-03-24T19:24:10.309Z,10.20
2023-03-24T19:26:37.836Z,10.10
2023-03-24T19:29:05.409Z,10.00
2023-03-24T19:31:32.976Z,9.90
2023-03-24T19:34:00.448Z,9.80
2023-03-24T19:36:28.016Z,9.80
2023-03-24T19:38:55.546Z,9.70
2023-03-24T19:41:23.071Z,9.70
2023-03-24T19:43:52.232Z,9.70
2023-03-24T19:46:22.407Z,9.60
2023-03-24T19:48:50.711Z,9.90
2023-03-24T19:51:18.260Z,9.90
2023-03-24T19:53:45.795Z,9.90
2023-03-24T19:56:14.136Z,9.80
2023-03-24T19:58:41.715Z,9.70
2023-03-24T20:01:09.998Z,9.90
2023-03-24T20:03:38.441Z,9.90
2023-03-24T20:06:08.956Z,9.90
2023-03-24T20:08:39.216Z,9.80
2023-03-24T20:11:06.734Z,9.80
2023-03-24T20:13:34.306Z,9.80
2023-03-24T20:16:01.894Z,9.70
2023-03-24T20:18:29.420Z,9.70
2023-03-24T20:20:56.955Z,9.60
2023-03-24T20:23:24.524Z,9.60
2023-03-24T20:25:52.257Z,9.80
2023-03-24T20:28:20.352Z,9.70
2023-03-24T20:30:48.646Z,9.60
2023-03-24T20:33:16.168Z,9.60
2023-03-24T20:35:43.711Z,9.60
2023-03-24T20:38:11.292Z,9.50
2023-03-24T20:40:38.870Z,9.40
2023-03-24T20:43:06.361Z,9.40
2023-03-24T20:45:35.373Z,9.30
2023-03-24T20:48:02.793Z,9.30
2023-03-24T20:50:30.282Z,9.50
2023-03-24T20:52:58.631Z,9.40
2023-03-24T20:55:26.175Z,9.40
2023-03-24T20:57:53.701Z,9.30
2023-03-24T21:00:22.021Z,9.50
2023-03-24T21:02:49.685Z,9.50
2023-03-24T21:05:17.064Z,9.40
2023-03-24T21:07:45.410Z,9.30
2023-03-24T21:10:12.924Z,9.30
2023-03-24T21:12:52.400Z,9.20
2023-03-24T21:15:08.874Z,9.20
2023-03-24T21:17:36.442Z,9.10
2023-03-24T21:20:07.378Z,9.30
2023-03-24T21:22:34.951Z,9.30
2023-03-24T21:25:02.479Z,9.30
2023-03-24T21:27:30.021Z,9.20
2023-03-24T21:29:58.334Z,9.20
2023-03-24T21:32:25.870Z,9.10
2023-03-24T21:34:54.173Z,9.10
2023-03-24T21:37:22.399Z,9.10
2023-03-24T21:39:50.609Z,9.00
2023-03-24T21:42:18.124Z,9.00
2023-03-24T21:44:45.966Z,9.00
2023-03-24T21:47:13.510Z,9.00
2023-03-24T21:49:41.041Z,9.20
2023-03-24T21:52:09.453Z,9.40
2023-03-24T21:54:36.906Z,9.40
2023-03-24T21:57:04.485Z,9.30
2023-03-24T21:59:32.024Z,9.30
2023-03-24T22:01:59.562Z,9.20
2023-03-24T22:04:27.094Z,9.10
2023-03-24T22:06:55.417Z,9.00
2023-03-24T22:09:22.954Z,9.00
2023-03-24T22:11:50.477Z,9.00
2023-03-24T22:14:18.057Z,8.90
2023-03-24T22:16:46.396Z,8.80
2023-03-24T22:19:13.876Z,8.80
2023-03-24T22:21:41.461Z,8.80
2023-03-24T22:24:09.762Z,8.70
2023-03-24T22:26:37.276Z,8.70
2023-03-24T22:29:06.375Z,8.70
2023-03-24T22:31:34.672Z,8.70
2023-03-24T22:34:02.206Z,8.70
2023-03-24T22:36:30.550Z,8.70
2023-03-24T22:38:58.073Z,8.70
2023-03-24T22:41:25.615Z,8.70
2023-03-24T22:43:53.959Z,8.90
2023-03-24T22:46:21.553Z,8.90
2023-03-24T22:48:49.017Z,8.80
2023-03-24T22:51:16.581Z,9.00
2023-03-24T22:53:44.157Z,9.00
2023-03-24T22:56:11.669Z,9.00
2023-03-24T22:58:40.005Z,8.80
2023-03-24T23:01:07.540Z,8.80
2023-03-24T23:03:35.064Z,8.80
2023-03-24T23:06:03.403Z,8.70
2023-03-24T23:08:30.928Z,8.70
2023-03-24T23:10:58.461Z,8.60
2023-03-24T23:13:26.012Z,8.60
2023-03-24T23:15:53.700Z,8.60
2023-03-24T23:18:21.086Z,8.50
2023-03-24T23:20:49.443Z,8.50
2023-03-24T23:23:16.969Z,8.70
2023-03-24T23:25:45.260Z,8.60
2023-03-24T23:28:12.895Z,8.60
2023-03-24T23:30:40.622Z,8.60
2023-03-24T23:33:09.028Z,8.60
2023-03-24T23:35:36.466Z,8.60
2023-03-24T23:38:03.968Z,8.60
2023-03-24T23:40:32.262Z,8.60
2023-03-24T23:43:00.626Z,8.60
2023-03-24T23:45:28.166Z,8.60
2023-03-24T23:47:55.763Z,8.60
2023-03-24T23:50:23.294Z,8.60
2023-03-24T23:52:50.800Z,8.60
2023-03-24T23:55:18.520Z,8.60
2023-03-24T23:57:46.890Z,8.80
